sensor_id;sensor_type;location;lat;lon;timestamp;P1;durP1;ratioP1;P2;durP2;ratioP2
28266;SDS011;15525;45.568;5.448;2024-02-21T00:00:15;28.15;;;14.00;;
28266;SDS011;15525;45.568;5.448;2024-02-21T00:02:41;30.33;;;14.65;;
28266;SDS011;15525;45.568;5.448;2024-02-21T00:05:06;33.10;;;15.88;;
28266;SDS011;15525;45.568;5.448;2024-02-21T00:07:32;26.45;;;14.63;;
28266;SDS011;15525;45.568;5.448;2024-02-21T00:09:57;32.25;;;14.50;;
28266;SDS011;15525;45.568;5.448;2024-02-21T00:12:23;31.23;;;16.17;;
28266;SDS011;15525;45.568;5.448;2024-02-21T00:14:48;32.40;;;16.15;;
28266;SDS011;15525;45.568;5.448;2024-02-21T00:17:13;32.70;;;16.20;;
28266;SDS011;15525;45.568;5.448;2024-02-21T00:19:39;33.63;;;17.45;;
28266;SDS011;15525;45.568;5.448;2024-02-21T00:22:04;30.55;;;16.10;;
28266;SDS011;15525;45.568;5.448;2024-02-21T00:24:30;27.80;;;16.08;;
28266;SDS011;15525;45.568;5.448;2024-02-21T00:26:55;28.77;;;15.18;;
28266;SDS011;15525;45.568;5.448;2024-02-21T00:29:20;28.08;;;15.18;;
28266;SDS011;15525;45.568;5.448;2024-02-21T00:31:47;32.55;;;15.45;;
28266;SDS011;15525;45.568;5.448;2024-02-21T00:34:13;29.80;;;14.65;;
28266;SDS011;15525;45.568;5.448;2024-02-21T00:36:38;28.48;;;15.30;;
28266;SDS011;15525;45.568;5.448;2024-02-21T00:39:03;27.58;;;15.05;;
28266;SDS011;15525;45.568;5.448;2024-02-21T00:41:29;29.55;;;14.13;;
28266;SDS011;15525;45.568;5.448;2024-02-21T00:43:54;31.90;;;15.15;;
28266;SDS011;15525;45.568;5.448;2024-02-21T00:46:20;28.73;;;15.25;;
28266;SDS011;15525;45.568;5.448;2024-02-21T00:48:45;32.28;;;15.70;;
28266;SDS011;15525;45.568;5.448;2024-02-21T00:51:10;30.27;;;14.63;;
28266;SDS011;15525;45.568;5.448;2024-02-21T00:53:36;31.15;;;14.32;;
28266;SDS011;15525;45.568;5.448;2024-02-21T00:56:04;28.27;;;14.77;;
28266;SDS011;15525;45.568;5.448;2024-02-21T00:58:30;28.52;;;14.90;;
28266;SDS011;15525;45.568;5.448;2024-02-21T01:00:55;29.30;;;14.15;;
28266;SDS011;15525;45.568;5.448;2024-02-21T01:03:21;29.38;;;13.95;;
28266;SDS011;15525;45.568;5.448;2024-02-21T01:05:46;29.70;;;14.32;;
28266;SDS011;15525;45.568;5.448;2024-02-21T01:08:11;32.13;;;15.35;;
28266;SDS011;15525;45.568;5.448;2024-02-21T01:10:37;31.77;;;15.45;;
28266;SDS011;15525;45.568;5.448;2024-02-21T01:13:02;32.72;;;14.57;;
28266;SDS011;15525;45.568;5.448;2024-02-21T01:15:28;29.80;;;15.10;;
28266;SDS011;15525;45.568;5.448;2024-02-21T01:17:53;27.10;;;14.10;;
28266;SDS011;15525;45.568;5.448;2024-02-21T01:20:20;26.98;;;14.77;;
28266;SDS011;15525;45.568;5.448;2024-02-21T01:22:46;26.98;;;13.77;;
28266;SDS011;15525;45.568;5.448;2024-02-21T01:25:11;27.48;;;14.43;;
28266;SDS011;15525;45.568;5.448;2024-02-21T01:27:36;26.30;;;14.02;;
28266;SDS011;15525;45.568;5.448;2024-02-21T01:30:02;28.83;;;14.80;;
28266;SDS011;15525;45.568;5.448;2024-02-21T01:32:27;31.63;;;15.13;;
28266;SDS011;15525;45.568;5.448;2024-02-21T01:34:53;33.50;;;16.08;;
28266;SDS011;15525;45.568;5.448;2024-02-21T01:37:18;30.90;;;15.20;;
28266;SDS011;15525;45.568;5.448;2024-02-21T01:39:44;28.70;;;14.80;;
28266;SDS011;15525;45.568;5.448;2024-02-21T01:42:09;32.80;;;15.57;;
28266;SDS011;15525;45.568;5.448;2024-02-21T01:44:34;28.80;;;14.35;;
28266;SDS011;15525;45.568;5.448;2024-02-21T01:47:00;31.15;;;16.15;;
28266;SDS011;15525;45.568;5.448;2024-02-21T01:49:26;27.42;;;14.77;;
28266;SDS011;15525;45.568;5.448;2024-02-21T01:51:51;32.25;;;15.77;;
28266;SDS011;15525;45.568;5.448;2024-02-21T01:54:18;30.60;;;14.85;;
28266;SDS011;15525;45.568;5.448;2024-02-21T01:56:44;27.25;;;14.80;;
28266;SDS011;15525;45.568;5.448;2024-02-21T01:59:12;29.85;;;15.20;;
28266;SDS011;15525;45.568;5.448;2024-02-21T02:01:38;28.88;;;14.88;;
28266;SDS011;15525;45.568;5.448;2024-02-21T02:04:05;31.50;;;14.95;;
28266;SDS011;15525;45.568;5.448;2024-02-21T02:06:31;33.65;;;15.75;;
28266;SDS011;15525;45.568;5.448;2024-02-21T02:08:56;31.88;;;14.60;;
28266;SDS011;15525;45.568;5.448;2024-02-21T02:11:22;34.22;;;15.18;;
28266;SDS011;15525;45.568;5.448;2024-02-21T02:13:48;31.25;;;15.43;;
28266;SDS011;15525;45.568;5.448;2024-02-21T02:16:13;30.90;;;15.60;;
28266;SDS011;15525;45.568;5.448;2024-02-21T02:18:38;30.48;;;15.18;;
28266;SDS011;15525;45.568;5.448;2024-02-21T02:21:04;30.40;;;14.70;;
28266;SDS011;15525;45.568;5.448;2024-02-21T02:23:39;30.45;;;14.98;;
28266;SDS011;15525;45.568;5.448;2024-02-21T02:26:05;26.77;;;14.35;;
28266;SDS011;15525;45.568;5.448;2024-02-21T02:28:32;30.23;;;15.20;;
28266;SDS011;15525;45.568;5.448;2024-02-21T02:30:57;28.95;;;14.90;;
28266;SDS011;15525;45.568;5.448;2024-02-21T02:33:23;30.52;;;15.88;;
28266;SDS011;15525;45.568;5.448;2024-02-21T02:35:48;31.33;;;15.23;;
28266;SDS011;15525;45.568;5.448;2024-02-21T02:38:14;30.27;;;14.90;;
28266;SDS011;15525;45.568;5.448;2024-02-21T02:40:40;30.67;;;15.38;;
28266;SDS011;15525;45.568;5.448;2024-02-21T02:43:06;30.00;;;15.30;;
28266;SDS011;15525;45.568;5.448;2024-02-21T02:45:32;28.40;;;14.23;;
28266;SDS011;15525;45.568;5.448;2024-02-21T02:47:58;30.83;;;14.75;;
28266;SDS011;15525;45.568;5.448;2024-02-21T02:50:24;30.73;;;14.20;;
28266;SDS011;15525;45.568;5.448;2024-02-21T02:52:50;28.77;;;14.82;;
28266;SDS011;15525;45.568;5.448;2024-02-21T02:55:15;24.52;;;13.68;;
28266;SDS011;15525;45.568;5.448;2024-02-21T02:57:41;23.88;;;13.57;;
28266;SDS011;15525;45.568;5.448;2024-02-21T03:00:07;29.05;;;14.25;;
28266;SDS011;15525;45.568;5.448;2024-02-21T03:02:34;26.67;;;14.38;;
28266;SDS011;15525;45.568;5.448;2024-02-21T03:05:00;28.50;;;14.65;;
28266;SDS011;15525;45.568;5.448;2024-02-21T03:07:25;27.58;;;14.23;;
28266;SDS011;15525;45.568;5.448;2024-02-21T03:09:51;28.38;;;14.25;;
28266;SDS011;15525;45.568;5.448;2024-02-21T03:12:18;22.23;;;13.70;;
28266;SDS011;15525;45.568;5.448;2024-02-21T03:14:49;24.23;;;13.60;;
28266;SDS011;15525;45.568;5.448;2024-02-21T03:17:15;27.00;;;14.23;;
28266;SDS011;15525;45.568;5.448;2024-02-21T03:19:41;28.10;;;13.77;;
28266;SDS011;15525;45.568;5.448;2024-02-21T03:22:06;27.52;;;14.02;;
28266;SDS011;15525;45.568;5.448;2024-02-21T03:24:32;32.05;;;13.98;;
28266;SDS011;15525;45.568;5.448;2024-02-21T03:26:58;31.25;;;14.65;;
28266;SDS011;15525;45.568;5.448;2024-02-21T03:29:24;29.92;;;14.27;;
28266;SDS011;15525;45.568;5.448;2024-02-21T03:31:49;28.05;;;14.18;;
28266;SDS011;15525;45.568;5.448;2024-02-21T03:34:15;24.88;;;13.85;;
28266;SDS011;15525;45.568;5.448;2024-02-21T03:36:40;29.25;;;13.77;;
28266;SDS011;15525;45.568;5.448;2024-02-21T03:39:06;27.17;;;13.57;;
28266;SDS011;15525;45.568;5.448;2024-02-21T03:41:33;29.08;;;13.82;;
28266;SDS011;15525;45.568;5.448;2024-02-21T03:43:58;31.33;;;13.98;;
28266;SDS011;15525;45.568;5.448;2024-02-21T03:46:24;28.90;;;13.48;;
28266;SDS011;15525;45.568;5.448;2024-02-21T03:48:50;31.23;;;14.00;;
28266;SDS011;15525;45.568;5.448;2024-02-21T03:51:15;28.50;;;14.30;;
28266;SDS011;15525;45.568;5.448;2024-02-21T03:53:41;27.70;;;14.25;;
28266;SDS011;15525;45.568;5.448;2024-02-21T03:56:06;35.50;;;15.20;;
28266;SDS011;15525;45.568;5.448;2024-02-21T03:58:32;30.67;;;15.90;;
28266;SDS011;15525;45.568;5.448;2024-02-21T04:01:01;39.22;;;16.30;;
28266;SDS011;15525;45.568;5.448;2024-02-21T04:03:26;33.63;;;15.93;;
28266;SDS011;15525;45.568;5.448;2024-02-21T04:05:52;37.58;;;15.88;;
28266;SDS011;15525;45.568;5.448;2024-02-21T04:08:17;35.08;;;16.30;;
28266;SDS011;15525;45.568;5.448;2024-02-21T04:10:43;34.33;;;15.85;;
28266;SDS011;15525;45.568;5.448;2024-02-21T04:13:09;37.20;;;16.20;;
28266;SDS011;15525;45.568;5.448;2024-02-21T04:15:34;34.28;;;15.45;;
28266;SDS011;15525;45.568;5.448;2024-02-21T04:18:00;40.53;;;16.70;;
28266;SDS011;15525;45.568;5.448;2024-02-21T04:20:25;39.95;;;15.68;;
28266;SDS011;15525;45.568;5.448;2024-02-21T04:22:51;31.77;;;16.00;;
28266;SDS011;15525;45.568;5.448;2024-02-21T04:25:16;35.58;;;16.00;;
28266;SDS011;15525;45.568;5.448;2024-02-21T04:27:42;34.13;;;15.05;;
28266;SDS011;15525;45.568;5.448;2024-02-21T04:30:07;32.92;;;16.35;;
28266;SDS011;15525;45.568;5.448;2024-02-21T04:32:33;36.25;;;16.27;;
28266;SDS011;15525;45.568;5.448;2024-02-21T04:34:58;33.80;;;16.58;;
28266;SDS011;15525;45.568;5.448;2024-02-21T04:37:24;35.47;;;16.17;;
28266;SDS011;15525;45.568;5.448;2024-02-21T04:39:49;37.08;;;17.17;;
28266;SDS011;15525;45.568;5.448;2024-02-21T04:42:15;36.83;;;16.90;;
28266;SDS011;15525;45.568;5.448;2024-02-21T04:44:40;31.80;;;15.52;;
28266;SDS011;15525;45.568;5.448;2024-02-21T04:47:06;34.17;;;16.40;;
28266;SDS011;15525;45.568;5.448;2024-02-21T04:49:32;35.42;;;16.17;;
28266;SDS011;15525;45.568;5.448;2024-02-21T04:51:58;42.45;;;17.63;;
28266;SDS011;15525;45.568;5.448;2024-02-21T04:54:23;37.05;;;18.15;;
28266;SDS011;15525;45.568;5.448;2024-02-21T04:56:49;35.25;;;17.40;;
28266;SDS011;15525;45.568;5.448;2024-02-21T04:59:14;36.70;;;17.67;;
28266;SDS011;15525;45.568;5.448;2024-02-21T05:01:39;38.53;;;17.50;;
28266;SDS011;15525;45.568;5.448;2024-02-21T05:04:05;36.80;;;17.75;;
28266;SDS011;15525;45.568;5.448;2024-02-21T05:06:30;35.40;;;16.58;;
28266;SDS011;15525;45.568;5.448;2024-02-21T05:08:56;33.42;;;16.67;;
28266;SDS011;15525;45.568;5.448;2024-02-21T05:11:22;32.45;;;15.95;;
28266;SDS011;15525;45.568;5.448;2024-02-21T05:13:48;35.50;;;16.33;;
28266;SDS011;15525;45.568;5.448;2024-02-21T05:16:13;38.35;;;16.95;;
28266;SDS011;15525;45.568;5.448;2024-02-21T05:18:40;38.60;;;16.77;;
28266;SDS011;15525;45.568;5.448;2024-02-21T05:21:05;33.08;;;16.25;;
28266;SDS011;15525;45.568;5.448;2024-02-21T05:23:31;31.05;;;15.75;;
28266;SDS011;15525;45.568;5.448;2024-02-21T05:25:56;34.13;;;16.15;;
28266;SDS011;15525;45.568;5.448;2024-02-21T05:28:22;32.80;;;15.50;;
28266;SDS011;15525;45.568;5.448;2024-02-21T05:30:47;35.45;;;16.50;;
28266;SDS011;15525;45.568;5.448;2024-02-21T05:33:13;36.10;;;16.45;;
28266;SDS011;15525;45.568;5.448;2024-02-21T05:35:46;39.13;;;16.48;;
28266;SDS011;15525;45.568;5.448;2024-02-21T05:38:11;35.33;;;16.48;;
28266;SDS011;15525;45.568;5.448;2024-02-21T05:40:36;35.80;;;15.98;;
28266;SDS011;15525;45.568;5.448;2024-02-21T05:43:02;32.10;;;15.48;;
28266;SDS011;15525;45.568;5.448;2024-02-21T05:45:27;33.60;;;15.52;;
28266;SDS011;15525;45.568;5.448;2024-02-21T05:47:53;35.45;;;16.15;;
28266;SDS011;15525;45.568;5.448;2024-02-21T05:50:18;32.83;;;15.63;;
28266;SDS011;15525;45.568;5.448;2024-02-21T05:52:44;29.52;;;15.80;;
28266;SDS011;15525;45.568;5.448;2024-02-21T05:55:09;34.35;;;16.35;;
28266;SDS011;15525;45.568;5.448;2024-02-21T05:57:35;34.35;;;15.98;;
28266;SDS011;15525;45.568;5.448;2024-02-21T06:00:03;32.88;;;16.23;;
28266;SDS011;15525;45.568;5.448;2024-02-21T06:02:30;33.05;;;15.48;;
28266;SDS011;15525;45.568;5.448;2024-02-21T06:04:55;30.30;;;14.98;;
28266;SDS011;15525;45.568;5.448;2024-02-21T06:07:21;33.65;;;15.35;;
28266;SDS011;15525;45.568;5.448;2024-02-21T06:09:46;29.85;;;15.57;;
28266;SDS011;15525;45.568;5.448;2024-02-21T06:12:11;31.58;;;15.80;;
28266;SDS011;15525;45.568;5.448;2024-02-21T06:14:37;32.15;;;15.10;;
28266;SDS011;15525;45.568;5.448;2024-02-21T06:17:02;30.70;;;15.23;;
28266;SDS011;15525;45.568;5.448;2024-02-21T06:19:28;35.60;;;15.85;;
28266;SDS011;15525;45.568;5.448;2024-02-21T06:21:53;31.77;;;15.68;;
28266;SDS011;15525;45.568;5.448;2024-02-21T06:24:18;35.67;;;17.55;;
28266;SDS011;15525;45.568;5.448;2024-02-21T06:26:44;37.50;;;17.10;;
28266;SDS011;15525;45.568;5.448;2024-02-21T06:29:10;32.00;;;15.45;;
28266;SDS011;15525;45.568;5.448;2024-02-21T06:31:36;32.40;;;16.35;;
28266;SDS011;15525;45.568;5.448;2024-02-21T06:34:02;33.17;;;16.20;;
28266;SDS011;15525;45.568;5.448;2024-02-21T06:36:27;36.95;;;17.02;;
28266;SDS011;15525;45.568;5.448;2024-02-21T06:38:53;36.20;;;17.80;;
28266;SDS011;15525;45.568;5.448;2024-02-21T06:41:18;39.53;;;16.92;;
28266;SDS011;15525;45.568;5.448;2024-02-21T06:43:44;36.63;;;16.08;;
28266;SDS011;15525;45.568;5.448;2024-02-21T06:46:11;37.92;;;16.60;;
28266;SDS011;15525;45.568;5.448;2024-02-21T06:48:36;29.23;;;13.85;;
28266;SDS011;15525;45.568;5.448;2024-02-21T06:51:02;32.72;;;15.00;;
28266;SDS011;15525;45.568;5.448;2024-02-21T06:53:28;33.17;;;15.35;;
28266;SDS011;15525;45.568;5.448;2024-02-21T06:55:54;31.52;;;15.57;;
28266;SDS011;15525;45.568;5.448;2024-02-21T06:58:19;29.83;;;15.10;;
28266;SDS011;15525;45.568;5.448;2024-02-21T07:00:45;31.20;;;15.43;;
28266;SDS011;15525;45.568;5.448;2024-02-21T07:03:10;31.65;;;13.98;;
28266;SDS011;15525;45.568;5.448;2024-02-21T07:05:35;37.28;;;14.90;;
28266;SDS011;15525;45.568;5.448;2024-02-21T07:08:01;31.17;;;14.75;;
28266;SDS011;15525;45.568;5.448;2024-02-21T07:10:26;31.80;;;14.25;;
28266;SDS011;15525;45.568;5.448;2024-02-21T07:12:54;34.95;;;15.80;;
28266;SDS011;15525;45.568;5.448;2024-02-21T07:15:19;39.72;;;16.67;;
28266;SDS011;15525;45.568;5.448;2024-02-21T07:17:45;36.53;;;16.80;;
28266;SDS011;15525;45.568;5.448;2024-02-21T07:20:10;38.63;;;16.98;;
28266;SDS011;15525;45.568;5.448;2024-02-21T07:22:36;34.58;;;16.52;;
28266;SDS011;15525;45.568;5.448;2024-02-21T07:25:01;34.60;;;15.88;;
28266;SDS011;15525;45.568;5.448;2024-02-21T07:27:27;40.00;;;16.67;;
28266;SDS011;15525;45.568;5.448;2024-02-21T07:29:55;36.33;;;16.98;;
28266;SDS011;15525;45.568;5.448;2024-02-21T07:32:21;39.70;;;17.17;;
28266;SDS011;15525;45.568;5.448;2024-02-21T07:34:46;39.67;;;17.80;;
28266;SDS011;15525;45.568;5.448;2024-02-21T07:37:12;41.67;;;17.23;;
28266;SDS011;15525;45.568;5.448;2024-02-21T07:39:37;34.33;;;16.60;;
28266;SDS011;15525;45.568;5.448;2024-02-21T07:42:03;40.67;;;17.13;;
28266;SDS011;15525;45.568;5.448;2024-02-21T07:44:28;35.92;;;16.75;;
28266;SDS011;15525;45.568;5.448;2024-02-21T07:46:53;35.83;;;16.45;;
28266;SDS011;15525;45.568;5.448;2024-02-21T07:49:19;37.15;;;16.50;;
28266;SDS011;15525;45.568;5.448;2024-02-21T07:51:44;35.58;;;16.58;;
28266;SDS011;15525;45.568;5.448;2024-02-21T07:54:09;34.22;;;15.27;;
28266;SDS011;15525;45.568;5.448;2024-02-21T07:56:35;36.47;;;14.75;;
28266;SDS011;15525;45.568;5.448;2024-02-21T07:59:00;40.15;;;15.77;;
28266;SDS011;15525;45.568;5.448;2024-02-21T08:01:26;37.05;;;15.82;;
28266;SDS011;15525;45.568;5.448;2024-02-21T08:03:51;35.17;;;14.52;;
28266;SDS011;15525;45.568;5.448;2024-02-21T08:06:16;35.10;;;14.77;;
28266;SDS011;15525;45.568;5.448;2024-02-21T08:08:42;32.33;;;14.57;;
28266;SDS011;15525;45.568;5.448;2024-02-21T08:11:07;31.27;;;14.25;;
28266;SDS011;15525;45.568;5.448;2024-02-21T08:13:32;36.35;;;14.95;;
28266;SDS011;15525;45.568;5.448;2024-02-21T08:15:58;31.80;;;14.48;;
28266;SDS011;15525;45.568;5.448;2024-02-21T08:18:23;29.92;;;15.57;;
28266;SDS011;15525;45.568;5.448;2024-02-21T08:20:49;37.05;;;16.55;;
28266;SDS011;15525;45.568;5.448;2024-02-21T08:23:18;33.10;;;16.85;;
28266;SDS011;15525;45.568;5.448;2024-02-21T08:25:44;30.95;;;16.15;;
28266;SDS011;15525;45.568;5.448;2024-02-21T08:28:09;30.67;;;15.35;;
28266;SDS011;15525;45.568;5.448;2024-02-21T08:30:35;31.95;;;15.77;;
28266;SDS011;15525;45.568;5.448;2024-02-21T08:33:00;29.15;;;15.45;;
28266;SDS011;15525;45.568;5.448;2024-02-21T08:35:25;28.55;;;15.18;;
28266;SDS011;15525;45.568;5.448;2024-02-21T08:37:51;27.25;;;14.32;;
28266;SDS011;15525;45.568;5.448;2024-02-21T08:40:16;24.42;;;12.77;;
28266;SDS011;15525;45.568;5.448;2024-02-21T08:42:46;36.33;;;14.45;;
28266;SDS011;15525;45.568;5.448;2024-02-21T08:45:12;30.60;;;15.20;;
28266;SDS011;15525;45.568;5.448;2024-02-21T08:47:41;30.42;;;15.07;;
28266;SDS011;15525;45.568;5.448;2024-02-21T08:50:07;30.48;;;15.20;;
28266;SDS011;15525;45.568;5.448;2024-02-21T08:52:34;30.60;;;15.57;;
28266;SDS011;15525;45.568;5.448;2024-02-21T08:55:00;25.90;;;14.57;;
28266;SDS011;15525;45.568;5.448;2024-02-21T08:57:25;31.92;;;14.50;;
28266;SDS011;15525;45.568;5.448;2024-02-21T08:59:51;28.30;;;14.38;;
28266;SDS011;15525;45.568;5.448;2024-02-21T09:02:17;27.30;;;14.27;;
28266;SDS011;15525;45.568;5.448;2024-02-21T09:04:42;26.13;;;13.75;;
28266;SDS011;15525;45.568;5.448;2024-02-21T09:07:09;30.05;;;14.43;;
28266;SDS011;15525;45.568;5.448;2024-02-21T09:09:35;34.75;;;15.60;;
28266;SDS011;15525;45.568;5.448;2024-02-21T09:12:00;30.05;;;16.52;;
28266;SDS011;15525;45.568;5.448;2024-02-21T09:14:34;35.35;;;19.02;;
28266;SDS011;15525;45.568;5.448;2024-02-21T09:17:03;40.15;;;18.85;;
28266;SDS011;15525;45.568;5.448;2024-02-21T09:19:29;32.15;;;16.80;;
28266;SDS011;15525;45.568;5.448;2024-02-21T09:21:54;27.05;;;16.02;;
28266;SDS011;15525;45.568;5.448;2024-02-21T09:24:20;30.00;;;14.75;;
28266;SDS011;15525;45.568;5.448;2024-02-21T09:26:45;26.48;;;12.95;;
28266;SDS011;15525;45.568;5.448;2024-02-21T09:29:11;19.80;;;11.43;;
28266;SDS011;15525;45.568;5.448;2024-02-21T09:31:36;24.77;;;11.55;;
28266;SDS011;15525;45.568;5.448;2024-02-21T09:34:03;33.30;;;11.02;;
28266;SDS011;15525;45.568;5.448;2024-02-21T09:36:29;19.50;;;9.65;;
28266;SDS011;15525;45.568;5.448;2024-02-21T09:38:55;22.15;;;9.35;;
28266;SDS011;15525;45.568;5.448;2024-02-21T09:41:25;17.27;;;9.63;;
28266;SDS011;15525;45.568;5.448;2024-02-21T09:43:52;18.98;;;9.32;;
28266;SDS011;15525;45.568;5.448;2024-02-21T09:46:45;17.38;;;9.15;;
28266;SDS011;15525;45.568;5.448;2024-02-21T09:49:21;16.65;;;9.68;;
28266;SDS011;15525;45.568;5.448;2024-02-21T09:51:49;18.05;;;10.07;;
28266;SDS011;15525;45.568;5.448;2024-02-21T09:54:18;21.70;;;10.23;;
28266;SDS011;15525;45.568;5.448;2024-02-21T09:56:46;21.45;;;10.05;;
28266;SDS011;15525;45.568;5.448;2024-02-21T09:59:12;19.23;;;9.35;;
28266;SDS011;15525;45.568;5.448;2024-02-21T10:01:42;20.55;;;10.05;;
28266;SDS011;15525;45.568;5.448;2024-02-21T10:04:09;17.40;;;10.38;;
28266;SDS011;15525;45.568;5.448;2024-02-21T10:06:34;18.13;;;9.18;;
28266;SDS011;15525;45.568;5.448;2024-02-21T10:09:02;19.55;;;9.82;;
28266;SDS011;15525;45.568;5.448;2024-02-21T10:11:28;15.50;;;8.27;;
28266;SDS011;15525;45.568;5.448;2024-02-21T10:14:06;17.40;;;9.38;;
28266;SDS011;15525;45.568;5.448;2024-02-21T10:16:32;14.73;;;8.18;;
28266;SDS011;15525;45.568;5.448;2024-02-21T10:18:58;13.60;;;7.30;;
28266;SDS011;15525;45.568;5.448;2024-02-21T10:21:24;14.05;;;7.63;;
28266;SDS011;15525;45.568;5.448;2024-02-21T10:23:50;12.88;;;8.52;;
28266;SDS011;15525;45.568;5.448;2024-02-21T10:26:17;17.42;;;9.80;;
28266;SDS011;15525;45.568;5.448;2024-02-21T10:28:44;13.95;;;8.30;;
28266;SDS011;15525;45.568;5.448;2024-02-21T10:31:11;10.75;;;7.65;;
28266;SDS011;15525;45.568;5.448;2024-02-21T10:33:53;15.55;;;8.85;;
28266;SDS011;15525;45.568;5.448;2024-02-21T10:36:18;14.60;;;8.07;;
28266;SDS011;15525;45.568;5.448;2024-02-21T10:38:44;12.50;;;8.02;;
28266;SDS011;15525;45.568;5.448;2024-02-21T10:41:09;17.25;;;8.95;;
28266;SDS011;15525;45.568;5.448;2024-02-21T10:43:40;17.50;;;8.25;;
28266;SDS011;15525;45.568;5.448;2024-02-21T10:46:08;17.92;;;8.93;;
28266;SDS011;15525;45.568;5.448;2024-02-21T10:48:42;14.73;;;8.77;;
28266;SDS011;15525;45.568;5.448;2024-02-21T10:51:16;17.10;;;9.55;;
28266;SDS011;15525;45.568;5.448;2024-02-21T10:53:56;13.13;;;8.15;;
28266;SDS011;15525;45.568;5.448;2024-02-21T10:56:29;18.55;;;9.00;;
28266;SDS011;15525;45.568;5.448;2024-02-21T10:59:06;15.32;;;8.13;;
28266;SDS011;15525;45.568;5.448;2024-02-21T11:01:33;13.50;;;9.68;;
28266;SDS011;15525;45.568;5.448;2024-02-21T11:04:04;15.05;;;9.77;;
28266;SDS011;15525;45.568;5.448;2024-02-21T11:06:31;20.67;;;11.45;;
28266;SDS011;15525;45.568;5.448;2024-02-21T11:08:59;21.15;;;11.90;;
28266;SDS011;15525;45.568;5.448;2024-02-21T11:11:35;20.23;;;12.27;;
28266;SDS011;15525;45.568;5.448;2024-02-21T11:14:06;19.45;;;11.40;;
28266;SDS011;15525;45.568;5.448;2024-02-21T11:16:45;19.20;;;11.80;;
28266;SDS011;15525;45.568;5.448;2024-02-21T11:19:20;19.48;;;11.10;;
28266;SDS011;15525;45.568;5.448;2024-02-21T11:21:53;21.70;;;11.65;;
28266;SDS011;15525;45.568;5.448;2024-02-21T11:24:29;15.32;;;10.90;;
28266;SDS011;15525;45.568;5.448;2024-02-21T11:26:56;15.75;;;9.63;;
28266;SDS011;15525;45.568;5.448;2024-02-21T11:29:33;17.70;;;9.27;;
28266;SDS011;15525;45.568;5.448;2024-02-21T11:31:58;13.70;;;8.52;;
28266;SDS011;15525;45.568;5.448;2024-02-21T11:34:23;14.00;;;8.50;;
28266;SDS011;15525;45.568;5.448;2024-02-21T11:36:50;13.88;;;7.38;;
28266;SDS011;15525;45.568;5.448;2024-02-21T11:39:20;11.63;;;7.20;;
28266;SDS011;15525;45.568;5.448;2024-02-21T11:42:02;15.57;;;9.17;;
28266;SDS011;15525;45.568;5.448;2024-02-21T11:44:28;17.35;;;9.25;;
28266;SDS011;15525;45.568;5.448;2024-02-21T11:46:54;20.92;;;10.88;;
28266;SDS011;15525;45.568;5.448;2024-02-21T11:49:20;20.35;;;10.85;;
28266;SDS011;15525;45.568;5.448;2024-02-21T11:51:46;11.90;;;7.13;;
28266;SDS011;15525;45.568;5.448;2024-02-21T11:54:11;8.65;;;6.30;;
28266;SDS011;15525;45.568;5.448;2024-02-21T11:56:41;12.10;;;6.97;;
28266;SDS011;15525;45.568;5.448;2024-02-21T11:59:06;11.55;;;6.93;;
28266;SDS011;15525;45.568;5.448;2024-02-21T12:01:32;13.30;;;6.40;;
28266;SDS011;15525;45.568;5.448;2024-02-21T12:03:57;17.27;;;8.02;;
28266;SDS011;15525;45.568;5.448;2024-02-21T12:06:22;13.43;;;8.15;;
28266;SDS011;15525;45.568;5.448;2024-02-21T12:08:48;16.90;;;7.93;;
28266;SDS011;15525;45.568;5.448;2024-02-21T12:11:18;14.48;;;8.48;;
28266;SDS011;15525;45.568;5.448;2024-02-21T12:14:00;14.68;;;8.88;;
28266;SDS011;15525;45.568;5.448;2024-02-21T12:16:27;16.45;;;8.80;;
28266;SDS011;15525;45.568;5.448;2024-02-21T12:18:54;15.73;;;9.48;;
28266;SDS011;15525;45.568;5.448;2024-02-21T12:21:23;13.30;;;8.35;;
28266;SDS011;15525;45.568;5.448;2024-02-21T12:23:49;17.63;;;8.93;;
28266;SDS011;15525;45.568;5.448;2024-02-21T12:26:14;17.27;;;9.18;;
28266;SDS011;15525;45.568;5.448;2024-02-21T12:28:40;17.52;;;9.40;;
28266;SDS011;15525;45.568;5.448;2024-02-21T12:31:05;18.35;;;10.18;;
28266;SDS011;15525;45.568;5.448;2024-02-21T12:33:31;16.15;;;10.48;;
28266;SDS011;15525;45.568;5.448;2024-02-21T12:35:58;20.20;;;11.27;;
28266;SDS011;15525;45.568;5.448;2024-02-21T12:38:23;16.40;;;8.85;;
28266;SDS011;15525;45.568;5.448;2024-02-21T12:40:49;16.55;;;9.00;;
28266;SDS011;15525;45.568;5.448;2024-02-21T12:43:14;13.48;;;8.95;;
28266;SDS011;15525;45.568;5.448;2024-02-21T12:45:39;12.60;;;8.55;;
28266;SDS011;15525;45.568;5.448;2024-02-21T12:48:05;15.07;;;8.90;;
28266;SDS011;15525;45.568;5.448;2024-02-21T12:50:30;13.55;;;8.80;;
28266;SDS011;15525;45.568;5.448;2024-02-21T12:52:56;15.85;;;9.95;;
28266;SDS011;15525;45.568;5.448;2024-02-21T12:55:23;13.32;;;8.98;;
28266;SDS011;15525;45.568;5.448;2024-02-21T12:57:48;16.98;;;10.25;;
28266;SDS011;15525;45.568;5.448;2024-02-21T13:00:14;16.50;;;9.88;;
28266;SDS011;15525;45.568;5.448;2024-02-21T13:02:40;14.02;;;8.20;;
28266;SDS011;15525;45.568;5.448;2024-02-21T13:05:06;14.90;;;9.35;;
28266;SDS011;15525;45.568;5.448;2024-02-21T13:07:32;13.55;;;8.85;;
28266;SDS011;15525;45.568;5.448;2024-02-21T13:09:58;14.90;;;8.43;;
28266;SDS011;15525;45.568;5.448;2024-02-21T13:12:23;14.98;;;8.77;;
28266;SDS011;15525;45.568;5.448;2024-02-21T13:14:51;13.65;;;7.55;;
28266;SDS011;15525;45.568;5.448;2024-02-21T13:17:16;5.72;;;3.60;;
28266;SDS011;15525;45.568;5.448;2024-02-21T13:19:42;8.32;;;4.68;;
28266;SDS011;15525;45.568;5.448;2024-02-21T13:22:07;7.18;;;4.10;;
28266;SDS011;15525;45.568;5.448;2024-02-21T13:24:32;7.13;;;3.90;;
28266;SDS011;15525;45.568;5.448;2024-02-21T13:26:58;5.47;;;3.63;;
28266;SDS011;15525;45.568;5.448;2024-02-21T13:29:24;5.15;;;4.10;;
28266;SDS011;15525;45.568;5.448;2024-02-21T13:31:49;6.22;;;3.95;;
28266;SDS011;15525;45.568;5.448;2024-02-21T13:34:15;5.22;;;3.70;;
28266;SDS011;15525;45.568;5.448;2024-02-21T13:36:42;5.20;;;3.50;;
28266;SDS011;15525;45.568;5.448;2024-02-21T13:39:07;6.65;;;3.60;;
28266;SDS011;15525;45.568;5.448;2024-02-21T13:41:40;6.13;;;3.92;;
28266;SDS011;15525;45.568;5.448;2024-02-21T13:44:07;6.53;;;3.78;;
28266;SDS011;15525;45.568;5.448;2024-02-21T13:46:34;4.80;;;3.80;;
28266;SDS011;15525;45.568;5.448;2024-02-21T13:49:03;5.07;;;3.30;;
28266;SDS011;15525;45.568;5.448;2024-02-21T13:51:31;7.50;;;3.92;;
28266;SDS011;15525;45.568;5.448;2024-02-21T13:53:56;7.25;;;4.10;;
28266;SDS011;15525;45.568;5.448;2024-02-21T13:56:22;6.35;;;3.92;;
28266;SDS011;15525;45.568;5.448;2024-02-21T13:58:47;6.03;;;4.00;;
28266;SDS011;15525;45.568;5.448;2024-02-21T14:01:13;6.55;;;3.80;;
28266;SDS011;15525;45.568;5.448;2024-02-21T14:03:38;6.10;;;3.60;;
28266;SDS011;15525;45.568;5.448;2024-02-21T14:06:03;6.00;;;3.47;;
28266;SDS011;15525;45.568;5.448;2024-02-21T14:08:30;6.25;;;3.83;;
28266;SDS011;15525;45.568;5.448;2024-02-21T14:10:56;5.30;;;3.38;;
28266;SDS011;15525;45.568;5.448;2024-02-21T14:13:24;5.55;;;3.10;;
28266;SDS011;15525;45.568;5.448;2024-02-21T14:15:49;4.35;;;3.00;;
28266;SDS011;15525;45.568;5.448;2024-02-21T14:18:15;7.07;;;2.85;;
28266;SDS011;15525;45.568;5.448;2024-02-21T14:20:41;4.97;;;2.97;;